Flight Track Log - Related Links

Times and Time Zones

All times are in EDT time to prevent confusion due to time zone crossing. See the QXE2079 flight status page for this flight to view local times or setup timezone preferences in your user account.

Time Position Orientation Groundspeed Altitude Reporting Facility
EDT Latitude Longitude Course Direction KTS MPH feet Rate Location/Type
Thu 05:24:00 PM 46.3162 -118.9055 290° West  Level Estimated
Thu 05:25:00 PM 46.3264 -119.0205 277° West  Level FlightAware Approximate
Thu 05:26:00 PM 46.3637 -119.1233 293° West  Level Estimated
Thu 05:27:00 PM 46.4008 -119.2261 284° West  Level Estimated
Thu 05:28:00 PM 46.4379 -119.3292 290° West  Level Estimated
Thu 05:29:00 PM 46.4517 -119.4437 280° West  Level FlightAware Approximate
Thu 05:30:00 PM 46.4655 -119.5582 280° West  Level FlightAware Approximate
Thu 05:31:00 PM 46.4791 -119.6728 280° West  Level FlightAware Approximate
Thu 05:32:00 PM 46.4927 -119.7875 280° West  Level FlightAware Approximate
Thu 05:33:00 PM 46.5307 -119.8834 299° West  Level Estimated
Thu 05:34:00 PM 46.5686 -119.9794 314° West  Level Estimated
Thu 05:35:00 PM 46.6065 -120.0756 302° West  Level Estimated
Thu 05:36:00 PM 46.6443 -120.1719 314° West  Level Estimated
Thu 05:37:00 PM 46.6820 -120.2683 299° West  Level Estimated
Thu 05:38:00 PM 46.7196 -120.3649 306° West  Level Estimated
Thu 05:39:00 PM 46.7571 -120.4616 303° West  Level Estimated
Thu 05:40:00 PM 46.7841 -120.5657 291° West  Level FlightAware Approximate
Thu 05:41:00 PM 46.8109 -120.6698 291° West  Level FlightAware Approximate
Thu 05:42:00 PM 46.8494 -120.7659 North  Level Estimated
Thu 05:43:00 PM 46.8878 -120.8621 303° West  Level Estimated
Thu 05:44:00 PM 46.9261 -120.9585 290° West  Level Estimated
Thu 05:45:00 PM 46.9643 -121.0549 310° West  Level Estimated
Thu 05:46:00 PM 47.0025 -121.1516 306° West  Level Estimated
Thu 05:47:00 PM 47.0338 -121.2534 294° West  Level FlightAware Approximate
Thu 05:48:00 PM 47.0724 -121.3498 301° West  Level Estimated
Thu 05:49:00 PM 47.1061 -121.4501 296° West  Level FlightAware Approximate
Thu 05:50:00 PM 47.1451 -121.5463 315° West  Level Estimated
Thu 05:51:00 PM 47.1839 -121.6427 306° West  Level Estimated
Thu 05:52:00 PM 47.2227 -121.7392 306° West  Level Estimated
Thu 05:53:00 PM 47.2614 -121.8358 306° West  Level Estimated
Thu 05:54:00 PM 47.3000 -121.9326 306° West  Level Estimated
Thu 05:55:00 PM 47.3385 -122.0295 306° West  Level Estimated
Thu 05:56:00 PM 47.3769 -122.1266 306° West  Level Estimated
Thu 05:57:00 PM 47.4153 -122.2238 306° West  Level Estimated
Thu 05:58:00 PM 47.4333 -122.3000 306° West  Level FlightAware Approximate
Thu 05:59:00 PM 47.4499 -122.3118 306° West  Level Estimated
Thu 06:00:00 PM 47.4499 -122.3118 306° West  Level Estimated
Thu 06:01:00 PM 47.4499 -122.3118 306° West  Level Estimated
Thu 06:02:00 PM 47.4499 -122.3118 306° West  Level Estimated
Thu 06:03:00 PM 47.4499 -122.3118 306° West  Level Estimated
Thu 06:04:00 PM 47.4499 -122.3118 306° West  Level Estimated
Thu 06:05:00 PM 47.4499 -122.3118 306° West  Level Estimated
Thu 06:06:00 PM 47.4499 -122.3118 306° West  Level Estimated

Login

Don't have an account? Register now (free) for customized features, flight alerts, and more!